Time;durP1;ratioP1;P1;durP2;ratioP2;P2;SDS_P1;SDS_P2;PMS_P1;PMS_P2;Temp;Humidity;BMP_temperature;BMP_pressure;BME280_temperature;BME280_humidity;BME280_pressure;Samples;Min_cycle;Max_cycle;Signal;HPM_P1;HPM_P2
2022/01/03 00:00:50;;;;;;;7.13;1.85;;;9.90;99.90;;;;;;6191861;23;20032;-84
2022/01/03 00:03:41;;;;;;;6.10;2.22;;;10.10;99.90;;;;;;6193378;23;20408;-83
2022/01/03 00:06:29;;;;;;;4.47;2.00;;;10.20;99.90;;;;;;6191800;23;20052;-83
2022/01/03 00:09:21;;;;;;;6.28;2.10;;;10.30;99.90;;;;;;6193109;23;20020;-85
2022/01/03 00:12:11;;;;;;;7.78;2.10;;;10.40;99.90;;;;;;6171357;23;20389;-85
2022/01/03 00:15:09;;;;;;;9.25;1.83;;;10.50;99.90;;;;;;6190115;23;20401;-81
2022/01/03 00:17:57;;;;;;;10.07;2.17;;;10.60;99.90;;;;;;6192789;23;20059;-82
2022/01/03 00:20:56;;;;;;;6.20;1.73;;;10.60;99.90;;;;;;6214830;23;20036;-87
2022/01/03 00:23:53;;;;;;;4.93;1.88;;;10.70;99.90;;;;;;6192093;23;20098;-81
2022/01/03 00:26:41;;;;;;;3.53;1.58;;;10.70;99.90;;;;;;6193027;23;20480;-82
2022/01/03 00:29:56;;;;;;;7.00;2.28;;;10.70;99.90;;;;;;6192331;23;20055;-82
2022/01/03 00:32:44;;;;;;;7.43;2.15;;;10.70;99.90;;;;;;6191186;23;20031;-81
2022/01/03 00:35:42;;;;;;;5.65;1.73;;;10.70;99.90;;;;;;6217115;23;20107;-80
2022/01/03 00:38:35;;;;;;;4.45;1.60;;;10.70;99.90;;;;;;6221572;23;20086;-83
2022/01/03 00:41:23;;;;;;;8.18;2.47;;;10.60;99.90;;;;;;6242911;23;20020;-82
2022/01/03 00:44:17;;;;;;;5.07;1.40;;;10.60;99.90;;;;;;6244995;23;20039;-82
2022/01/03 00:47:10;;;;;;;7.03;1.98;;;10.50;99.90;;;;;;6243155;23;20420;-81
2022/01/03 00:50:01;;;;;;;7.28;1.60;;;10.50;99.90;;;;;;6243877;23;20089;-85
2022/01/03 00:52:54;;;;;;;4.47;1.45;;;10.50;99.90;;;;;;6220750;23;20078;-82
2022/01/03 00:56:01;;;;;;;9.13;1.60;;;10.50;99.90;;;;;;6246593;22;20470;-82
2022/01/03 00:59:00;;;;;;;5.07;1.52;;;10.60;99.90;;;;;;6222011;23;20046;-84
2022/01/03 01:01:50;;;;;;;10.23;2.13;;;10.60;99.90;;;;;;6221077;23;20028;-81
2022/01/03 01:04:42;;;;;;;6.22;1.95;;;10.50;99.90;;;;;;6233185;23;20030;-82
2022/01/03 01:07:32;;;;;;;9.60;2.63;;;10.50;99.90;;;;;;6242137;23;20028;-83
2022/01/03 01:10:20;;;;;;;6.63;1.95;;;10.60;99.90;;;;;;6245549;22;20059;-82
2022/01/03 01:13:12;;;;;;;5.97;1.88;;;10.50;99.90;;;;;;6220812;23;20024;-81
2022/01/03 01:16:03;;;;;;;11.57;1.63;;;10.60;99.90;;;;;;6242452;23;20023;-81
2022/01/03 01:18:51;;;;;;;9.20;1.90;;;10.50;99.90;;;;;;6223111;23;20099;-82
2022/01/03 01:21:39;;;;;;;5.80;1.88;;;10.40;99.90;;;;;;6222067;23;20133;-82
2022/01/03 01:24:34;;;;;;;7.00;1.60;;;10.30;99.90;;;;;;6243058;23;20028;-83
2022/01/03 01:30:29;;;;;;;7.38;1.73;;;10.20;99.90;;;;;;6213263;23;20082;-82
2022/01/03 01:33:17;;;;;;;6.50;2.53;;;10.20;99.90;;;;;;6226546;22;20024;-80
2022/01/03 01:36:31;;;;;;;6.10;1.80;;;10.10;99.90;;;;;;6214240;23;20083;-80
2022/01/03 01:39:23;;;;;;;4.90;2.13;;;10.10;99.90;;;;;;6196330;23;20447;-81
2022/01/03 01:42:15;;;;;;;7.30;2.50;;;10.10;99.90;;;;;;6193742;23;20403;-81
2022/01/03 01:45:08;;;;;;;9.52;1.95;;;10.00;99.90;;;;;;6216633;23;20039;-81
2022/01/03 01:47:58;;;;;;;5.90;1.80;;;10.00;99.90;;;;;;6194564;23;20126;-82
2022/01/03 01:50:50;;;;;;;5.30;2.00;;;10.00;99.90;;;;;;6191929;23;20158;-81
2022/01/03 01:53:53;;;;;;;8.40;2.00;;;9.90;99.90;;;;;;6191948;23;20028;-82
2022/01/03 01:57:08;;;;;;;9.32;2.08;;;9.90;99.90;;;;;;6192359;23;20336;-85
2022/01/03 02:00:07;;;;;;;10.68;1.83;;;9.80;99.90;;;;;;6213277;23;20028;-83
2022/01/03 02:03:46;;;;;;;6.22;2.08;;;9.80;99.90;;;;;;6191615;23;20056;-82
2022/01/03 02:06:40;;;;;;;8.10;1.80;;;9.80;99.90;;;;;;6132755;23;20427;-82
2022/01/03 02:09:43;;;;;;;7.30;1.75;;;9.70;99.90;;;;;;6192048;23;20353;-81
2022/01/03 02:12:36;;;;;;;9.48;2.08;;;9.70;99.90;;;;;;6210882;23;20771;-81
2022/01/03 02:15:23;;;;;;;7.68;2.03;;;9.70;99.90;;;;;;6211271;23;20102;-83
2022/01/03 02:18:11;;;;;;;12.38;2.10;;;9.70;99.90;;;;;;6190405;23;20025;-82
2022/01/03 02:21:02;;;;;;;6.22;1.98;;;9.70;99.90;;;;;;6170555;23;20032;-83
2022/01/03 02:23:51;;;;;;;12.15;2.10;;;9.80;99.90;;;;;;6190117;23;20107;-84
2022/01/03 02:26:39;;;;;;;7.28;1.70;;;9.80;99.90;;;;;;6188702;23;20024;-84
2022/01/03 02:29:27;;;;;;;4.60;1.73;;;9.90;99.90;;;;;;6172235;23;20082;-83
2022/01/03 02:32:14;;;;;;;6.47;1.98;;;9.80;99.90;;;;;;6171605;23;20131;-83
2022/01/03 02:35:01;;;;;;;9.15;1.83;;;9.80;99.90;;;;;;6171149;23;20309;-84
2022/01/03 02:37:49;;;;;;;5.97;2.00;;;9.80;99.90;;;;;;6189146;23;20043;-83
2022/01/03 02:40:38;;;;;;;6.78;2.03;;;9.80;99.90;;;;;;6213906;23;20029;-83
2022/01/03 02:43:28;;;;;;;9.65;2.03;;;9.90;99.90;;;;;;6172967;23;20095;-84
2022/01/03 02:46:15;;;;;;;3.67;1.63;;;9.80;99.90;;;;;;6190233;23;20028;-83
2022/01/03 02:49:05;;;;;;;3.35;1.80;;;9.80;99.90;;;;;;6191219;23;20340;-83
2022/01/03 02:51:52;;;;;;;7.30;2.05;;;9.80;99.90;;;;;;6190143;23;20059;-80
2022/01/03 02:54:42;;;;;;;6.03;2.05;;;9.80;99.90;;;;;;6191086;23;20123;-81
2022/01/03 02:57:47;;;;;;;8.82;2.22;;;9.70;99.90;;;;;;6191405;23;20432;-81
2022/01/03 03:00:44;;;;;;;5.88;2.10;;;9.80;99.90;;;;;;6191770;23;20090;-84
2022/01/03 03:03:35;;;;;;;9.05;1.67;;;9.70;99.90;;;;;;6191991;23;20036;-83
2022/01/03 03:06:22;;;;;;;7.07;1.95;;;9.80;99.90;;;;;;6191727;23;20495;-84
2022/01/03 03:09:12;;;;;;;4.75;1.45;;;9.70;99.90;;;;;;6193175;23;20036;-83
2022/01/03 03:12:00;;;;;;;5.88;1.55;;;9.70;99.90;;;;;;6213317;23;20287;-82
2022/01/03 03:14:48;;;;;;;6.88;1.75;;;9.70;99.90;;;;;;6193152;23;20055;-81
2022/01/03 03:17:37;;;;;;;8.23;1.73;;;9.70;99.90;;;;;;6213061;23;20063;-83
2022/01/03 03:20:26;;;;;;;7.90;1.95;;;9.70;99.90;;;;;;6191572;23;20063;-81
2022/01/03 03:23:14;;;;;;;7.57;2.00;;;9.70;99.90;;;;;;6193349;23;20091;-83
2022/01/03 03:26:01;;;;;;;6.50;1.95;;;9.70;99.90;;;;;;6214552;23;20482;-82
2022/01/03 03:28:48;;;;;;;6.55;1.98;;;9.70;99.90;;;;;;6173193;23;20470;-84
2022/01/03 03:31:37;;;;;;;9.38;2.05;;;9.60;99.90;;;;;;6193301;23;20309;-83
2022/01/03 03:34:27;;;;;;;6.43;1.83;;;9.60;99.90;;;;;;6192374;23;20392;-82
2022/01/03 03:37:17;;;;;;;10.25;2.20;;;9.60;99.90;;;;;;6240522;23;20032;-84
2022/01/03 03:40:07;;;;;;;5.13;2.03;;;9.50;99.90;;;;;;6243062;23;20028;-84
2022/01/03 03:43:00;;;;;;;13.07;2.50;;;9.60;99.90;;;;;;6222909;23;20032;-82
2022/01/03 03:45:50;;;;;;;9.25;2.00;;;9.60;99.90;;;;;;6203124;23;20121;-82
2022/01/03 03:48:39;;;;;;;6.63;1.80;;;9.50;99.90;;;;;;6242496;23;20081;-82
2022/01/03 03:51:27;;;;;;;9.55;2.38;;;9.50;99.90;;;;;;6222828;23;20092;-82
2022/01/03 03:54:17;;;;;;;6.22;1.88;;;9.50;99.90;;;;;;6222771;23;20031;-81
2022/01/03 03:57:05;;;;;;;11.32;2.47;;;9.60;99.90;;;;;;6224704;22;20149;-82
2022/01/03 03:59:53;;;;;;;7.43;1.75;;;9.60;99.90;;;;;;6222374;23;20528;-84
2022/01/03 04:02:50;;;;;;;5.97;2.00;;;9.50;99.90;;;;;;6210858;23;20389;-81
2022/01/03 04:05:38;;;;;;;10.63;2.13;;;9.40;99.90;;;;;;6186995;23;20028;-83
2022/01/03 04:08:25;;;;;;;5.95;2.10;;;9.40;99.90;;;;;;6221344;23;20056;-83
2022/01/03 04:11:13;;;;;;;15.15;2.50;;;9.40;99.90;;;;;;6243200;23;20032;-85
2022/01/03 04:14:01;;;;;;;13.90;2.15;;;9.40;99.90;;;;;;6242793;23;20314;-82
2022/01/03 04:16:48;;;;;;;9.43;2.15;;;9.40;99.90;;;;;;6223463;23;20036;-83
2022/01/03 04:19:35;;;;;;;5.53;2.05;;;9.40;99.90;;;;;;6181368;23;20027;-80
2022/01/03 04:22:23;;;;;;;9.45;2.15;;;9.30;99.90;;;;;;6222787;23;20081;-83
2022/01/03 04:25:11;;;;;;;12.93;2.20;;;9.30;99.90;;;;;;6223623;23;20035;-83
2022/01/03 04:27:58;;;;;;;10.95;2.35;;;9.30;99.90;;;;;;6220843;23;20024;-81
2022/01/03 04:30:51;;;;;;;13.77;2.30;;;9.50;99.90;;;;;;6202807;23;20126;-83
2022/01/03 04:33:38;;;;;;;14.70;2.20;;;9.40;99.90;;;;;;6223880;23;20326;-81
2022/01/03 04:36:26;;;;;;;12.30;2.40;;;9.40;99.90;;;;;;6192784;23;20114;-82
2022/01/03 04:39:14;;;;;;;9.93;2.28;;;9.50;99.90;;;;;;6214787;23;20024;-83
2022/01/03 04:42:04;;;;;;;7.03;2.00;;;9.50;99.90;;;;;;6212786;23;20025;-82
2022/01/03 04:44:56;;;;;;;7.43;2.28;;;9.50;99.90;;;;;;6190541;23;20368;-85
2022/01/03 04:47:48;;;;;;;10.40;2.33;;;9.40;99.90;;;;;;6193282;23;20047;-81
2022/01/03 04:50:38;;;;;;;3.85;2.05;;;9.40;99.90;;;;;;6191444;23;20032;-83
2022/01/03 04:53:27;;;;;;;10.40;2.10;;;9.40;99.90;;;;;;6190647;23;20340;-81
2022/01/03 04:56:19;;;;;;;8.98;2.28;;;9.40;99.90;;;;;;6171843;23;20020;-81
2022/01/03 04:59:07;;;;;;;9.57;2.30;;;9.40;99.90;;;;;;6172893;23;20063;-82
2022/01/03 05:01:54;;;;;;;8.65;2.10;;;9.40;99.90;;;;;;6172560;23;20439;-84
2022/01/03 05:04:42;;;;;;;9.00;2.30;;;9.50;99.90;;;;;;6173262;23;20180;-80
2022/01/03 05:07:32;;;;;;;10.18;2.10;;;9.50;99.90;;;;;;6195373;23;20028;-83
2022/01/03 05:10:19;;;;;;;7.93;1.88;;;9.60;99.90;;;;;;6176081;23;20028;-83
2022/01/03 05:13:07;;;;;;;10.73;2.45;;;9.60;99.90;;;;;;6215899;23;20113;-83
2022/01/03 05:15:54;;;;;;;9.90;2.50;;;9.60;99.90;;;;;;6172687;23;20035;-82
2022/01/03 05:18:46;;;;;;;11.88;2.28;;;9.50;99.90;;;;;;6211749;23;20505;-80
2022/01/03 05:21:34;;;;;;;9.50;1.85;;;9.50;99.90;;;;;;6212069;23;20028;-85
2022/01/03 05:24:21;;;;;;;9.27;1.98;;;9.40;99.90;;;;;;6170295;23;20670;-81
2022/01/03 05:27:09;;;;;;;15.90;2.65;;;9.40;99.90;;;;;;6212023;23;20028;-82
2022/01/03 05:47:50;;;;;;;11.73;1.70;;;8.90;99.90;;;;;;6114898;23;20181;-83
2022/01/03 05:50:37;;;;;;;9.98;2.47;;;8.80;99.90;;;;;;6121510;23;20171;-85
2022/01/03 05:53:25;;;;;;;11.07;2.58;;;8.80;99.90;;;;;;6081171;23;20025;-85
2022/01/03 05:56:12;;;;;;;11.32;2.55;;;8.80;99.90;;;;;;6172709;23;20020;-86
2022/01/03 05:59:00;;;;;;;7.50;1.80;;;8.80;99.90;;;;;;6213425;23;20032;-85
2022/01/03 06:01:48;;;;;;;9.95;2.28;;;8.80;99.90;;;;;;6170324;23;20088;-87
2022/01/03 06:04:59;;;;;;;6.35;1.98;;;8.90;99.90;;;;;;6191050;23;20428;-81
2022/01/03 06:07:43;;;;;;;8.82;2.10;;;9.00;99.90;;;;;;6194823;23;20063;-80
2022/01/03 06:10:33;;;;;;;10.10;2.30;;;8.90;99.90;;;;;;6191186;23;20465;-81
2022/01/03 06:13:20;;;;;;;10.63;2.35;;;8.90;99.90;;;;;;6190525;23;20025;-82
2022/01/03 06:16:08;;;;;;;7.15;2.00;;;8.80;99.90;;;;;;6171410;23;20334;-81
2022/01/03 06:18:55;;;;;;;7.07;2.10;;;8.80;99.90;;;;;;6192590;23;20163;-84
2022/01/03 06:21:46;;;;;;;13.43;2.40;;;8.80;99.90;;;;;;6213260;23;20215;-83
2022/01/03 06:24:37;;;;;;;7.88;1.85;;;8.70;99.90;;;;;;6192408;23;20060;-82
2022/01/03 06:27:26;;;;;;;11.70;2.13;;;8.70;99.90;;;;;;6190491;23;20025;-84
2022/01/03 06:30:14;;;;;;;10.95;2.15;;;8.70;99.90;;;;;;6169568;23;20320;-80
2022/01/03 06:33:02;;;;;;;8.98;2.50;;;8.60;99.90;;;;;;6211856;23;20028;-82
2022/01/03 06:35:49;;;;;;;11.30;2.20;;;8.60;99.90;;;;;;6192869;23;20087;-82
2022/01/03 06:42:22;;;;;;;9.43;2.70;;;8.70;99.90;;;;;;6213782;23;20032;-84
2022/01/03 06:45:10;;;;;;;8.40;2.28;;;8.60;99.90;;;;;;6199657;23;20043;-86
2022/01/03 06:47:59;;;;;;;13.75;2.42;;;8.60;99.90;;;;;;6242384;22;20043;-85
2022/01/03 06:50:50;;;;;;;12.45;2.40;;;8.70;99.90;;;;;;6200965;23;20078;-84
2022/01/03 06:53:42;;;;;;;8.55;2.47;;;8.60;99.90;;;;;;6201776;23;20020;-86
2022/01/03 06:56:30;;;;;;;11.57;2.50;;;8.70;99.90;;;;;;6243185;23;20028;-85
2022/01/03 06:59:18;;;;;;;10.90;3.20;;;8.70;99.90;;;;;;6246142;23;20311;-84
2022/01/03 07:02:10;;;;;;;14.88;2.22;;;8.70;99.90;;;;;;6245215;23;20036;-88
2022/01/03 07:05:01;;;;;;;12.20;2.13;;;8.80;99.90;;;;;;6236915;23;20100;-84
2022/01/03 07:07:50;;;;;;;8.98;1.80;;;8.80;99.90;;;;;;6223226;23;20024;-86
2022/01/03 07:10:38;;;;;;;11.57;2.70;;;8.90;99.90;;;;;;6182327;23;20024;-82
2022/01/03 07:13:27;;;;;;;8.35;2.22;;;8.90;99.90;;;;;;6200685;23;20028;-86
2022/01/03 07:19:37;;;;;;;9.80;2.35;;;8.90;99.90;;;;;;6226947;23;20447;-88
2022/01/03 07:22:25;;;;;;;8.90;2.58;;;9.00;99.90;;;;;;6225676;22;20035;-86
2022/01/03 07:25:13;;;;;;;11.98;2.30;;;9.00;99.90;;;;;;6243934;23;20028;-87
2022/01/03 07:28:00;;;;;;;11.30;2.60;;;9.00;99.90;;;;;;6221259;23;20048;-85
2022/01/03 07:30:47;;;;;;;11.13;2.63;;;8.90;99.90;;;;;;6246124;22;20035;-83
2022/01/03 07:33:39;;;;;;;16.55;3.00;;;9.00;99.90;;;;;;6241627;23;20035;-86
2022/01/03 07:36:27;;;;;;;9.47;2.50;;;9.00;99.90;;;;;;6224248;22;20420;-85
2022/01/03 07:39:15;;;;;;;8.45;2.65;;;9.00;99.90;;;;;;6221761;23;20072;-86
2022/01/03 07:42:06;;;;;;;10.13;2.55;;;9.00;99.90;;;;;;6201985;23;20051;-83
2022/01/03 07:44:57;;;;;;;10.73;2.92;;;9.00;99.90;;;;;;6244978;23;20024;-84
2022/01/03 07:47:44;;;;;;;8.68;2.08;;;9.00;99.90;;;;;;6221497;23;20024;-83
2022/01/03 07:50:34;;;;;;;9.45;2.28;;;8.90;99.90;;;;;;6227125;23;20047;-86
2022/01/03 07:53:27;;;;;;;11.75;2.42;;;9.00;99.90;;;;;;6255222;23;20035;-83
2022/01/03 07:56:14;;;;;;;8.35;2.47;;;9.00;99.90;;;;;;6250941;23;20020;-87
2022/01/03 07:59:02;;;;;;;14.25;2.53;;;9.00;99.90;;;;;;6207235;23;20363;-85
2022/01/03 08:01:51;;;;;;;9.30;2.58;;;9.20;99.90;;;;;;6234263;23;20028;-86
2022/01/03 08:04:39;;;;;;;9.38;2.60;;;9.20;99.90;;;;;;6259471;23;20067;-85
2022/01/03 08:07:26;;;;;;;8.32;2.40;;;9.20;99.90;;;;;;6235134;23;20108;-85
2022/01/03 08:10:16;;;;;;;9.88;2.25;;;9.30;99.90;;;;;;6222211;23;20024;-85
2022/01/03 08:13:04;;;;;;;11.27;2.05;;;9.20;99.90;;;;;;6215710;23;20092;-85
2022/01/03 08:15:51;;;;;;;8.15;2.10;;;9.20;99.90;;;;;;6255752;23;20028;-87
2022/01/03 08:18:39;;;;;;;10.00;2.45;;;9.20;99.90;;;;;;6229970;23;20098;-84
2022/01/03 08:21:27;;;;;;;12.75;2.33;;;9.20;99.90;;;;;;6224474;23;20059;-82
2022/01/03 08:24:19;;;;;;;13.40;2.45;;;9.20;99.90;;;;;;6244844;23;20028;-86
2022/01/03 08:27:07;;;;;;;12.50;2.45;;;9.20;99.90;;;;;;6222175;23;20024;-85
2022/01/03 08:29:55;;;;;;;11.55;1.92;;;9.20;99.90;;;;;;6223471;23;20099;-83
2022/01/03 08:32:42;;;;;;;10.75;2.45;;;9.20;99.90;;;;;;6201786;23;20127;-84
2022/01/03 08:35:32;;;;;;;12.95;2.83;;;9.20;99.90;;;;;;6205283;23;20331;-82
2022/01/03 08:38:22;;;;;;;5.97;2.35;;;9.20;99.90;;;;;;6223275;23;20039;-83
2022/01/03 08:41:09;;;;;;;6.63;1.92;;;9.20;99.90;;;;;;6202373;23;20028;-84
2022/01/03 08:43:59;;;;;;;11.27;2.13;;;9.20;99.90;;;;;;6243514;23;20028;-84
2022/01/03 08:46:46;;;;;;;8.25;2.00;;;9.20;99.90;;;;;;6224578;23;20039;-82
2022/01/03 08:49:36;;;;;;;8.85;1.83;;;9.30;99.90;;;;;;6223236;23;20075;-85
2022/01/03 08:52:26;;;;;;;6.13;2.00;;;9.30;99.90;;;;;;6203040;23;20028;-84
2022/01/03 08:55:16;;;;;;;10.02;2.40;;;9.30;99.90;;;;;;6223700;23;20024;-83
2022/01/03 08:58:07;;;;;;;10.45;2.53;;;9.40;99.90;;;;;;6242628;23;20287;-87
2022/01/03 09:00:55;;;;;;;11.52;2.55;;;9.40;99.90;;;;;;6240865;23;20446;-86
2022/01/03 09:03:42;;;;;;;10.90;2.45;;;9.50;99.90;;;;;;6222829;23;20063;-84
2022/01/03 09:06:35;;;;;;;14.30;2.88;;;9.50;99.90;;;;;;6223912;23;20023;-86
2022/01/03 09:09:23;;;;;;;9.50;2.42;;;9.50;99.90;;;;;;6242416;23;20103;-86
2022/01/03 09:12:13;;;;;;;6.28;2.15;;;9.60;99.90;;;;;;6223034;23;20142;-87
2022/01/03 09:15:03;;;;;;;13.07;2.55;;;9.60;99.90;;;;;;6202224;23;20047;-86
2022/01/03 09:17:50;;;;;;;9.27;2.35;;;9.60;99.90;;;;;;6202534;23;20047;-85
2022/01/03 09:20:40;;;;;;;12.82;2.85;;;9.60;99.90;;;;;;6221628;23;20032;-85
2022/01/03 09:23:34;;;;;;;13.65;2.58;;;9.60;99.90;;;;;;6218927;23;20123;-82
2022/01/03 09:29:35;;;;;;;9.05;2.33;;;9.60;99.90;;;;;;6241946;23;20031;-85
2022/01/03 09:32:23;;;;;;;5.80;1.92;;;9.60;99.90;;;;;;6193565;23;20470;-85
2022/01/03 09:35:10;;;;;;;8.88;1.85;;;9.70;99.90;;;;;;6246050;22;20039;-85
2022/01/03 09:37:58;;;;;;;11.75;2.28;;;9.70;99.90;;;;;;6222054;23;20506;-84
2022/01/03 09:41:00;;;;;;;6.90;1.80;;;9.70;99.90;;;;;;6219503;23;20380;-85
2022/01/03 09:43:59;;;;;;;10.15;2.08;;;9.70;99.90;;;;;;6219248;23;20111;-85
2022/01/03 09:46:55;;;;;;;7.65;2.13;;;9.70;99.90;;;;;;6243820;23;20098;-84
2022/01/03 09:49:43;;;;;;;12.77;2.33;;;9.70;99.90;;;;;;6222297;23;20024;-84
2022/01/03 09:52:44;;;;;;;11.90;2.45;;;9.70;99.90;;;;;;6242128;23;20122;-82
2022/01/03 09:55:58;;;;;;;7.85;2.20;;;9.70;99.90;;;;;;6225200;23;20105;-82
2022/01/03 09:58:46;;;;;;;9.38;2.20;;;9.70;99.90;;;;;;6221957;23;20403;-83
2022/01/03 10:01:37;;;;;;;9.30;2.33;;;9.70;99.90;;;;;;6222156;23;20024;-83
2022/01/03 10:04:28;;;;;;;10.00;2.05;;;9.80;99.90;;;;;;6200786;23;20024;-84
2022/01/03 10:07:19;;;;;;;11.80;2.20;;;9.80;99.90;;;;;;6199959;23;20086;-86
2022/01/03 10:10:10;;;;;;;10.13;2.45;;;9.80;99.90;;;;;;6215968;23;20024;-84
2022/01/03 10:13:02;;;;;;;10.63;2.03;;;9.80;99.90;;;;;;6218286;23;20032;-84
2022/01/03 10:15:52;;;;;;;13.73;2.53;;;9.90;99.90;;;;;;6242414;23;20035;-83
2022/01/03 10:18:39;;;;;;;10.20;2.92;;;9.90;99.90;;;;;;6200280;23;20111;-82
2022/01/03 10:21:44;;;;;;;8.15;2.00;;;9.90;99.90;;;;;;6240915;23;20020;-83
2022/01/03 10:24:36;;;;;;;13.45;2.33;;;9.90;99.90;;;;;;6221460;23;20024;-81
2022/01/03 10:27:55;;;;;;;9.32;1.88;;;9.90;99.90;;;;;;6224820;22;20162;-81
2022/01/03 10:30:45;;;;;;;12.77;2.58;;;9.90;99.90;;;;;;6222184;23;20020;-84
2022/01/03 10:33:33;;;;;;;6.22;1.98;;;9.90;99.90;;;;;;6220695;23;20439;-84
2022/01/03 10:36:32;;;;;;;12.05;2.13;;;9.90;99.90;;;;;;6204232;23;20035;-83
2022/01/03 10:39:28;;;;;;;8.48;1.75;;;9.90;99.90;;;;;;6226375;23;20098;-82
2022/01/03 10:42:21;;;;;;;10.70;2.42;;;9.90;99.90;;;;;;6221430;23;20117;-81
2022/01/03 10:45:11;;;;;;;11.50;2.60;;;9.90;99.90;;;;;;6242201;22;20198;-85
2022/01/03 10:48:00;;;;;;;7.50;1.85;;;9.90;99.90;;;;;;6202631;23;20024;-86
2022/01/03 10:50:47;;;;;;;9.48;2.53;;;9.90;99.90;;;;;;6242374;23;20031;-85
2022/01/03 10:53:44;;;;;;;8.45;1.95;;;10.00;99.90;;;;;;6222001;23;20040;-85
2022/01/03 10:56:36;;;;;;;10.23;1.92;;;10.00;99.90;;;;;;6223954;22;20042;-84
2022/01/03 10:59:34;;;;;;;10.43;2.47;;;10.00;99.90;;;;;;6243878;23;20028;-82
2022/01/03 11:02:21;;;;;;;6.35;2.42;;;10.00;99.90;;;;;;6222023;23;20028;-82
2022/01/03 11:05:38;;;;;;;5.95;1.85;;;10.10;99.90;;;;;;6220959;23;20030;-83
2022/01/03 11:11:44;;;;;;;8.05;1.70;;;10.30;99.90;;;;;;6243825;22;20028;-81
2022/01/03 11:14:42;;;;;;;8.13;1.92;;;10.30;99.90;;;;;;6222521;23;20104;-84
2022/01/03 11:17:30;;;;;;;6.68;1.95;;;10.30;99.90;;;;;;6221593;23;20024;-85
2022/01/03 11:20:21;;;;;;;9.00;2.28;;;10.30;99.90;;;;;;6223782;22;20032;-84
2022/01/03 11:23:10;;;;;;;6.35;1.88;;;10.30;99.90;;;;;;6222537;23;20110;-83
2022/01/03 11:26:03;;;;;;;16.63;2.50;;;10.30;99.90;;;;;;6222905;23;20082;-83
2022/01/03 11:28:51;;;;;;;7.38;2.15;;;10.30;99.90;;;;;;6205597;23;20024;-84
2022/01/03 11:31:41;;;;;;;7.00;2.10;;;10.30;99.90;;;;;;6205866;23;20421;-82
2022/01/03 11:34:29;;;;;;;10.18;2.47;;;10.40;99.90;;;;;;6230312;22;20089;-83
2022/01/03 11:37:18;;;;;;;9.35;2.13;;;10.40;99.90;;;;;;6203476;23;20028;-82
2022/01/03 12:09:09;;;;;;;6.40;1.83;;;10.50;99.90;;;;;;5974287;23;20024;-83
2022/01/03 12:12:30;;;;;;;9.77;2.10;;;10.60;99.90;;;;;;5954307;24;20031;-84
2022/01/03 12:15:37;;;;;;;6.10;1.70;;;10.50;99.90;;;;;;5986460;23;20086;-83
2022/01/03 12:19:02;;;;;;;9.93;2.08;;;10.50;99.90;;;;;;6069951;23;20086;-82
2022/01/03 12:23:02;;;;;;;8.60;2.30;;;10.50;99.90;;;;;;6107176;23;20030;-80
2022/01/03 12:26:26;;;;;;;11.05;2.28;;;10.50;99.90;;;;;;6104471;23;20113;-85
2022/01/03 12:29:25;;;;;;;6.53;1.92;;;10.50;99.90;;;;;;6142943;23;20160;-84
2022/01/03 12:36:21;;;;;;;6.80;1.85;;;10.50;99.90;;;;;;6207932;23;20077;-84
2022/01/03 12:39:09;;;;;;;4.82;2.17;;;10.50;99.90;;;;;;6192921;23;20059;-83
2022/01/03 12:41:57;;;;;;;10.40;1.80;;;10.50;99.90;;;;;;6172046;23;20039;-84
2022/01/03 12:45:06;;;;;;;12.38;2.47;;;10.50;99.90;;;;;;6193322;23;20035;-86
2022/01/03 12:48:58;;;;;;;8.05;2.08;;;10.50;99.90;;;;;;6153939;23;20032;-85
2022/01/03 12:52:45;;;;;;;5.93;2.10;;;10.40;99.90;;;;;;6178853;23;20316;-83
2022/01/03 12:56:03;;;;;;;8.30;2.45;;;10.40;99.90;;;;;;6177449;23;20432;-82
2022/01/03 12:58:56;;;;;;;6.28;2.35;;;10.40;99.90;;;;;;6178861;23;20025;-85
2022/01/03 13:02:51;;;;;;;7.15;2.10;;;10.40;99.90;;;;;;6174779;23;20044;-83
2022/01/03 13:06:32;;;;;;;9.77;2.90;;;10.50;99.90;;;;;;6208733;23;20032;-86
2022/01/03 13:09:22;;;;;;;8.60;2.30;;;10.50;99.90;;;;;;6220058;23;20060;-80
2022/01/03 13:12:27;;;;;;;5.40;2.30;;;10.60;99.90;;;;;;6181430;23;20021;-83
2022/01/03 13:15:20;;;;;;;5.18;2.30;;;10.60;99.90;;;;;;6161187;23;20411;-83
2022/01/03 13:18:15;;;;;;;6.88;2.05;;;10.60;99.90;;;;;;6143594;23;20337;-81
2022/01/03 13:21:02;;;;;;;7.82;2.30;;;10.60;99.90;;;;;;6142445;23;20039;-84
2022/01/03 13:23:59;;;;;;;6.68;2.22;;;10.50;99.90;;;;;;6139157;23;20174;-84
2022/01/03 13:27:01;;;;;;;8.45;2.10;;;10.60;99.90;;;;;;6159583;23;20025;-83
2022/01/03 13:29:53;;;;;;;5.95;2.10;;;10.50;99.90;;;;;;6139872;23;20059;-88
2022/01/03 13:32:58;;;;;;;8.93;2.60;;;10.50;99.90;;;;;;6160169;23;20458;-82
2022/01/03 13:36:08;;;;;;;5.45;1.80;;;10.40;99.90;;;;;;6139110;23;20017;-81
2022/01/03 13:39:18;;;;;;;6.95;1.95;;;10.40;99.90;;;;;;6180019;23;20032;-82
2022/01/03 13:42:27;;;;;;;9.80;2.15;;;10.40;99.90;;;;;;6192002;23;20051;-83
2022/01/03 13:51:58;;;;;;;6.45;2.22;;;10.50;99.90;;;;;;6244408;22;20020;-83
2022/01/03 13:55:00;;;;;;;6.80;1.55;;;10.70;99.90;;;;;;6223426;23;20407;-84
2022/01/03 13:58:00;;;;;;;5.63;1.70;;;10.90;99.90;;;;;;6203774;23;20020;-85
2022/01/03 14:00:58;;;;;;;7.75;1.83;;;10.90;99.90;;;;;;6244652;23;20111;-84
2022/01/03 14:04:06;;;;;;;5.03;1.23;;;10.90;99.90;;;;;;6223664;23;20126;-83
2022/01/03 14:07:37;;;;;;;6.40;1.60;;;10.90;99.90;;;;;;6201641;23;20028;-84
2022/01/03 14:10:36;;;;;;;4.57;1.35;;;10.90;99.90;;;;;;6222431;23;20063;-81
2022/01/03 14:18:02;;;;;;;3.15;1.65;;;10.80;99.90;;;;;;6150960;23;20044;-86
2022/01/03 14:21:32;;;;;;;6.47;2.13;;;10.80;99.90;;;;;;6005626;23;20034;-85
2022/01/03 14:32:44;;;;;;;5.38;1.90;;;10.70;99.90;;;;;;5925021;24;20108;-85
2022/01/03 14:35:50;;;;;;;6.53;1.65;;;10.80;99.90;;;;;;5935206;24;20652;-87
2022/01/03 14:39:01;;;;;;;8.55;1.83;;;10.70;99.90;;;;;;5924632;24;20432;-86
2022/01/03 14:50:00;;;;;;;6.43;1.55;;;10.60;99.90;;;;;;5920237;24;20024;-83
2022/01/03 14:52:47;;;;;;;4.53;1.38;;;10.50;99.90;;;;;;6043285;23;20023;-82
2022/01/03 14:56:08;;;;;;;;;;;;;;;;;;;;;
2022/01/03 14:59:30;;;;;;;4.85;1.70;;;10.30;99.90;;;;;;6104131;23;20290;-85
2022/01/03 15:02:49;;;;;;;6.00;1.40;;;10.30;99.90;;;;;;6024858;23;20027;-82
2022/01/03 15:05:40;;;;;;;9.20;1.90;;;10.20;99.90;;;;;;6037361;23;20031;-83
2022/01/03 15:08:33;;;;;;;5.40;1.42;;;10.20;99.90;;;;;;6034532;23;20299;-85
2022/01/03 15:11:21;;;;;;;4.35;1.30;;;10.00;99.90;;;;;;6037441;23;20031;-84
2022/01/03 15:14:09;;;;;;;5.00;1.80;;;10.00;99.90;;;;;;6033250;23;20327;-82
2022/01/03 15:16:57;;;;;;;5.13;1.42;;;10.00;99.90;;;;;;6035848;23;20091;-83
2022/01/03 15:19:45;;;;;;;8.48;2.00;;;10.00;99.90;;;;;;6050231;23;20142;-83
2022/01/03 15:22:37;;;;;;;4.25;1.77;;;9.90;99.90;;;;;;6089901;23;20168;-85
2022/01/03 15:25:33;;;;;;;6.38;1.88;;;9.90;99.90;;;;;;6194969;23;20028;-83
2022/01/03 15:28:22;;;;;;;9.52;1.88;;;9.90;99.90;;;;;;6194431;23;20024;-83
2022/01/03 15:31:34;;;;;;;7.05;1.58;;;9.90;99.90;;;;;;6198376;23;20039;-82
2022/01/03 15:34:42;;;;;;;7.68;2.15;;;9.90;99.90;;;;;;6192456;23;20107;-84
2022/01/03 15:37:32;;;;;;;9.63;2.35;;;9.70;99.90;;;;;;6192931;23;20111;-85
2022/01/03 15:40:43;;;;;;;8.30;2.30;;;9.70;99.90;;;;;;6195774;23;20039;-83
2022/01/03 15:43:37;;;;;;;10.18;2.33;;;9.70;99.90;;;;;;6194462;23;20447;-84
2022/01/03 15:46:28;;;;;;;6.60;2.38;;;9.60;99.90;;;;;;6202351;23;20027;-84
2022/01/03 15:49:23;;;;;;;9.50;2.28;;;9.60;99.90;;;;;;6246437;23;20043;-83
2022/01/03 15:52:13;;;;;;;6.90;2.40;;;9.60;99.90;;;;;;6199767;23;20035;-83
2022/01/03 15:55:20;;;;;;;6.65;2.97;;;9.50;99.90;;;;;;6164054;23;20037;-88
2022/01/03 15:58:15;;;;;;;7.22;2.90;;;9.50;99.90;;;;;;6181188;23;20482;-85
2022/01/03 16:01:24;;;;;;;5.68;2.55;;;9.50;99.90;;;;;;6162657;23;20043;-85
2022/01/03 16:04:20;;;;;;;6.35;2.30;;;9.40;99.90;;;;;;6163200;23;20025;-85
2022/01/03 16:07:17;;;;;;;10.00;3.08;;;9.40;99.90;;;;;;6161759;23;20083;-84
2022/01/03 16:10:27;;;;;;;5.03;2.35;;;9.40;99.90;;;;;;6181485;23;20032;-83
2022/01/03 16:13:26;;;;;;;9.05;2.17;;;9.40;99.90;;;;;;6159486;23;20115;-83
2022/01/03 16:16:22;;;;;;;6.22;2.17;;;9.40;99.90;;;;;;6181883;23;20025;-84
2022/01/03 16:19:13;;;;;;;6.35;2.47;;;9.30;99.90;;;;;;6161393;23;20032;-86
2022/01/03 16:22:06;;;;;;;6.65;2.10;;;9.20;99.90;;;;;;6182238;23;20021;-82
2022/01/03 16:24:56;;;;;;;5.70;2.28;;;9.20;99.90;;;;;;6154810;23;20612;-82
2022/01/03 16:28:35;;;;;;;8.70;1.77;;;9.20;99.90;;;;;;6210201;23;20091;-84
2022/01/03 16:31:24;;;;;;;4.10;1.75;;;9.20;99.90;;;;;;6219399;23;20366;-82
2022/01/03 16:34:14;;;;;;;5.93;2.28;;;9.10;99.90;;;;;;6240002;23;20031;-82
2022/01/03 16:37:02;;;;;;;2.97;1.80;;;9.10;99.90;;;;;;6220977;23;20058;-84
2022/01/03 16:40:21;;;;;;;;;;;9.10;99.90;;;;;;6241412;23;20030;-83
2022/01/03 16:43:11;;;;;;;10.60;2.10;;;9.10;99.90;;;;;;6213100;23;20034;-82
2022/01/03 16:45:59;;;;;;;7.82;2.08;;;9.10;99.90;;;;;;6216958;22;20031;-82
2022/01/03 16:48:48;;;;;;;8.02;2.05;;;9.10;99.90;;;;;;6244130;23;20024;-82